Time;durP1;ratioP1;P1;durP2;ratioP2;P2;SDS_P1;SDS_P2;PMS_P1;PMS_P2;Temp;Humidity;BMP_temperature;BMP_pressure;BME280_temperature;BME280_humidity;BME280_pressure;Samples;Min_cycle;Max_cycle;Signal;HPM_P1;HPM_P2
2022/10/18 00:00:46;;;;;;;26.50;17.32;;;;;;;1.84;100.00;101962.95;1725643;83;21150;-55
2022/10/18 00:03:13;;;;;;;23.70;15.72;;;;;;;1.77;100.00;101964.66;1725350;83;20963;-54
2022/10/18 00:05:41;;;;;;;23.90;15.55;;;;;;;1.73;100.00;101967.03;1725657;83;20946;-53
2022/10/18 00:08:08;;;;;;;23.87;15.18;;;;;;;1.66;100.00;101966.06;1724835;83;21047;-57
2022/10/18 00:10:36;;;;;;;28.32;16.15;;;;;;;1.69;100.00;101972.33;1725688;83;20998;-54
2022/10/18 00:13:05;;;;;;;24.10;16.48;;;;;;;1.65;100.00;101969.55;1725508;83;22101;-54
2022/10/18 00:15:33;;;;;;;22.82;15.55;;;;;;;1.66;100.00;101966.06;1725489;83;21535;-54
2022/10/18 00:18:00;;;;;;;27.25;19.60;;;;;;;1.64;100.00;101970.94;1724964;83;20968;-56
2022/10/18 00:20:29;;;;;;;27.13;18.50;;;;;;;1.60;100.00;101969.45;1725350;83;21374;-55
2022/10/18 00:22:56;;;;;;;29.23;17.62;;;;;;;1.61;100.00;101967.24;1725558;83;20997;-54
2022/10/18 00:25:25;;;;;;;27.90;15.78;;;;;;;1.63;100.00;101966.26;1725443;83;21306;-54
2022/10/18 00:27:52;;;;;;;26.07;16.15;;;;;;;1.72;100.00;101957.66;1725523;83;21046;-55
2022/10/18 00:30:19;;;;;;;27.75;16.55;;;;;;;1.73;100.00;101964.45;1724925;83;21492;-54
2022/10/18 00:32:46;;;;;;;25.62;15.90;;;;;;;1.60;100.00;101956.59;1725661;83;20919;-56
2022/10/18 00:35:13;;;;;;;31.75;18.65;;;;;;;1.56;100.00;101952.53;1725815;83;21023;-54
2022/10/18 00:37:41;;;;;;;35.68;21.42;;;;;;;1.44;100.00;101952.74;1725416;83;21148;-62
2022/10/18 00:40:09;;;;;;;30.25;18.87;;;;;;;1.41;100.00;101955.01;1725128;83;20955;-53
2022/10/18 00:42:36;;;;;;;25.75;17.10;;;;;;;1.39;100.00;101949.11;1725576;83;20979;-54
2022/10/18 00:45:15;;;;;;;24.40;17.12;;;;;;;1.33;100.00;101951.20;1725394;83;20987;-54
2022/10/18 00:47:45;;;;;;;26.37;16.32;;;;;;;1.26;100.00;101942.16;1696836;83;21531;-62
2022/10/18 00:50:12;;;;;;;22.17;13.75;;;;;;;1.20;100.00;101949.26;1725608;82;21252;-54
2022/10/18 00:52:43;;;;;;;20.12;12.58;;;;;;;1.20;100.00;101948.43;1725515;83;20942;-54
2022/10/18 00:55:10;;;;;;;;;;;;;;;1.18;100.00;101947.70;1728484;83;20935;-53
2022/10/18 00:57:38;;;;;;;18.15;11.08;;;;;;;1.20;100.00;101950.54;1724934;81;20206;-54
2022/10/18 01:00:08;;;;;;;16.05;11.28;;;;;;;1.24;100.00;101951.67;1725623;81;22217;-54
2022/10/18 01:02:37;;;;;;;17.45;10.78;;;;;;;1.25;100.00;101950.32;1697302;83;21318;-56
2022/10/18 01:05:05;;;;;;;20.17;11.22;;;;;;;1.30;100.00;101948.79;1725446;83;21018;-54
2022/10/18 01:08:16;;;;;;;19.27;10.68;;;;;;;1.34;100.00;101945.97;1725071;83;20959;-54
2022/10/18 01:11:17;;;;;;;14.38;9.55;;;;;;;1.39;100.00;101940.58;1708550;83;20999;-63
2022/10/18 01:14:18;;;;;;;16.07;10.55;;;;;;;1.40;100.00;101948.66;1696538;84;20967;-56
2022/10/18 01:16:56;;;;;;;14.87;9.85;;;;;;;1.43;100.00;101951.06;1713872;83;22199;-56
2022/10/18 01:19:50;;;;;;;14.60;9.28;;;;;;;1.49;100.00;101943.03;1725003;83;20998;-56
2022/10/18 01:22:22;;;;;;;15.20;9.58;;;;;;;1.54;100.00;101944.06;1695122;84;20979;-57
2022/10/18 01:25:33;;;;;;;15.08;9.80;;;;;;;1.59;100.00;101945.92;1724354;83;21407;-56
2022/10/18 01:28:32;;;;;;;16.48;9.80;;;;;;;1.66;100.00;101939.08;1695096;84;21528;-56
2022/10/18 01:31:04;;;;;;;15.10;9.23;;;;;;;1.74;100.00;101939.94;1725504;83;21506;-56
2022/10/18 01:33:45;;;;;;;14.53;8.70;;;;;;;1.81;100.00;101940.44;1696268;84;21015;-56
2022/10/18 01:36:23;;;;;;;13.88;8.43;;;;;;;1.88;100.00;101939.19;1725102;81;20998;-58
2022/10/18 01:38:52;;;;;;;13.83;7.80;;;;;;;1.97;100.00;101941.69;1725011;83;20931;-56
2022/10/18 01:41:20;;;;;;;14.65;9.00;;;;;;;2.05;100.00;101928.80;1725503;83;20884;-56
2022/10/18 01:43:48;;;;;;;13.05;7.70;;;;;;;2.10;100.00;101928.06;1695027;84;21070;-57
2022/10/18 01:46:18;;;;;;;11.60;7.45;;;;;;;2.13;100.00;101930.47;1724980;83;21012;-56
2022/10/18 01:48:45;;;;;;;12.95;7.95;;;;;;;2.15;100.00;101929.09;1696317;84;21517;-57
2022/10/18 01:51:13;;;;;;;13.98;7.37;;;;;;;2.14;100.00;101927.44;1725408;82;21461;-56
2022/10/18 01:53:40;;;;;;;14.15;8.88;;;;;;;2.08;100.00;101923.45;1725487;83;21642;-56
2022/10/18 01:56:42;;;;;;;15.60;8.45;;;;;;;2.06;100.00;101927.88;1725742;83;21161;-56
2022/10/18 01:59:23;;;;;;;12.93;7.65;;;;;;;2.03;100.00;101923.36;1695038;84;20912;-57
2022/10/18 02:01:59;;;;;;;13.15;8.40;;;;;;;2.00;100.00;101926.92;1725414;83;21493;-63
2022/10/18 02:04:46;;;;;;;12.88;9.15;;;;;;;1.94;100.00;101924.71;1717169;81;21111;-56
2022/10/18 02:07:24;;;;;;;15.43;9.85;;;;;;;1.88;100.00;101925.05;1698314;83;21568;-57
2022/10/18 02:10:12;;;;;;;19.30;9.35;;;;;;;1.80;100.00;101925.94;1698111;84;21361;-55
2022/10/18 02:12:41;;;;;;;16.45;10.53;;;;;;;1.74;100.00;101923.23;1698182;84;20976;-56
2022/10/18 02:15:09;;;;;;;18.27;10.48;;;;;;;1.64;100.00;101920.81;1682258;84;21012;-61
2022/10/18 02:17:36;;;;;;;16.27;10.65;;;;;;;1.59;100.00;101917.22;1698374;84;21086;-54
2022/10/18 02:20:04;;;;;;;15.38;9.18;;;;;;;1.52;100.00;101910.75;1698483;83;21063;-54
2022/10/18 02:22:32;;;;;;;14.80;9.20;;;;;;;1.48;100.00;101909.69;1698409;84;21265;-54
2022/10/18 02:25:01;;;;;;;19.57;9.68;;;;;;;1.44;100.00;101909.06;1698258;84;20979;-56
2022/10/18 02:27:28;;;;;;;15.08;9.50;;;;;;;1.42;100.00;101905.27;1697753;83;21015;-55
2022/10/18 02:29:55;;;;;;;14.38;9.85;;;;;;;1.40;100.00;101904.55;1698195;84;21659;-54
2022/10/18 02:32:33;;;;;;;14.05;10.08;;;;;;;1.36;100.00;101906.88;1698420;83;21035;-54
2022/10/18 02:35:11;;;;;;;16.17;10.43;;;;;;;1.34;100.00;101908.72;1698315;84;21812;-55
2022/10/18 02:37:39;;;;;;;16.45;10.50;;;;;;;1.33;100.00;101902.39;1698117;84;20990;-54
2022/10/18 02:40:07;;;;;;;16.32;9.80;;;;;;;1.29;100.00;101902.15;1698362;83;20971;-54
2022/10/18 02:42:49;;;;;;;16.23;9.85;;;;;;;1.27;100.00;101910.41;1698271;84;20974;-54
2022/10/18 02:45:16;;;;;;;17.50;10.78;;;;;;;1.24;100.00;101904.97;1698090;84;20991;-55
2022/10/18 02:47:44;;;;;;;15.53;9.15;;;;;;;1.21;100.00;101902.56;1698532;84;21278;-55
2022/10/18 02:50:11;;;;;;;16.00;10.90;;;;;;;1.21;100.00;101897.00;1698228;83;20992;-55
2022/10/18 02:52:39;;;;;;;14.65;9.83;;;;;;;1.19;100.00;101893.66;1698134;83;20935;-54
2022/10/18 02:55:07;;;;;;;16.07;10.10;;;;;;;1.17;100.00;101897.22;1697868;84;20944;-62
2022/10/18 02:57:34;;;;;;;15.85;9.95;;;;;;;1.14;100.00;101892.27;1698430;84;21066;-54
2022/10/18 03:00:01;;;;;;;15.03;10.32;;;;;;;1.11;100.00;101891.14;1698377;84;21158;-54
2022/10/18 03:02:29;;;;;;;14.73;9.58;;;;;;;1.07;100.00;101893.50;1698184;84;21423;-54
2022/10/18 03:04:56;;;;;;;16.23;9.70;;;;;;;1.05;100.00;101888.43;1708476;81;21545;-54
2022/10/18 03:07:23;;;;;;;16.50;8.88;;;;;;;1.02;100.00;101886.02;1694528;84;21564;-55
2022/10/18 03:09:51;;;;;;;14.40;9.38;;;;;;;1.02;100.00;101889.05;1725460;83;21045;-54
2022/10/18 03:12:18;;;;;;;13.85;9.48;;;;;;;0.99;100.00;101885.38;1725586;81;21264;-55
2022/10/18 03:14:45;;;;;;;14.73;9.33;;;;;;;0.95;100.00;101889.38;1695146;84;21635;-54
2022/10/18 03:17:12;;;;;;;15.58;9.43;;;;;;;0.96;100.00;101894.89;1725463;81;21046;-54
2022/10/18 03:19:39;;;;;;;12.70;8.50;;;;;;;1.04;100.00;101884.21;1694334;84;21075;-55
2022/10/18 03:22:07;;;;;;;16.25;10.00;;;;;;;1.11;100.00;101884.27;1725833;83;21991;-54
2022/10/18 03:24:35;;;;;;;14.90;7.85;;;;;;;1.20;100.00;101878.63;1725779;83;22205;-54
2022/10/18 03:27:02;;;;;;;11.55;8.33;;;;;;;1.33;100.00;101877.52;1725144;83;20984;-55
2022/10/18 03:29:29;;;;;;;12.73;9.28;;;;;;;1.42;100.00;101882.60;1724995;81;21454;-61
2022/10/18 03:31:57;;;;;;;11.20;7.92;;;;;;;1.51;100.00;101879.98;1694829;84;20928;-54
2022/10/18 03:34:24;;;;;;;12.85;8.13;;;;;;;1.59;100.00;101873.95;1725567;83;20923;-55
2022/10/18 03:36:51;;;;;;;12.90;8.58;;;;;;;1.74;100.00;101879.52;1725629;83;21269;-55
2022/10/18 03:39:18;;;;;;;13.80;7.97;;;;;;;1.82;100.00;101881.23;1694921;84;20963;-55
2022/10/18 03:41:46;;;;;;;15.72;9.08;;;;;;;1.86;100.00;101873.72;1724960;83;21049;-54
2022/10/18 03:44:14;;;;;;;16.15;9.68;;;;;;;1.85;100.00;101875.07;1725196;83;21221;-55
2022/10/18 03:46:41;;;;;;;19.00;12.35;;;;;;;1.81;100.00;101883.88;1694831;84;21019;-54
2022/10/18 03:49:09;;;;;;;22.55;12.15;;;;;;;1.73;100.00;101889.45;1725917;83;21831;-54
2022/10/18 03:51:37;;;;;;;18.10;12.33;;;;;;;1.67;100.00;101888.52;1725093;83;21047;-56
2022/10/18 03:54:05;;;;;;;23.42;13.83;;;;;;;1.58;100.00;101880.02;1725452;83;21446;-56
2022/10/18 03:56:33;;;;;;;23.60;13.58;;;;;;;1.52;100.00;101873.95;1725451;83;21120;-55
2022/10/18 03:59:03;;;;;;;26.50;13.28;;;;;;;1.38;100.00;101870.84;1725634;83;20971;-55
2022/10/18 04:01:30;;;;;;;21.70;12.60;;;;;;;1.31;100.00;101878.50;1724883;83;21096;-57
2022/10/18 04:03:57;;;;;;;19.77;11.73;;;;;;;1.25;100.00;101878.83;1725719;83;21879;-55
2022/10/18 04:06:25;;;;;;;18.77;12.18;;;;;;;1.19;100.00;101887.24;1725282;83;21556;-54
2022/10/18 04:08:54;;;;;;;21.00;11.85;;;;;;;1.12;100.00;101879.95;1725490;83;20986;-55
2022/10/18 04:11:22;;;;;;;15.60;10.72;;;;;;;1.07;100.00;101882.77;1725357;83;20872;-56
2022/10/18 04:13:49;;;;;;;14.93;9.93;;;;;;;1.07;100.00;101890.47;1725292;83;21463;-55
2022/10/18 04:16:17;;;;;;;16.30;10.72;;;;;;;1.09;100.00;101890.38;1725543;83;21457;-54
2022/10/18 04:18:47;;;;;;;16.30;10.30;;;;;;;1.17;100.00;101883.09;1725342;83;21494;-54
2022/10/18 04:21:15;;;;;;;15.45;9.08;;;;;;;1.26;100.00;101886.47;1725582;83;21521;-55
2022/10/18 04:23:42;;;;;;;20.65;9.73;;;;;;;1.37;100.00;101886.72;1725024;83;21141;-56
2022/10/18 04:26:09;;;;;;;19.12;10.93;;;;;;;1.52;100.00;101878.63;1694853;84;21281;-55
2022/10/18 04:28:38;;;;;;;15.48;10.65;;;;;;;1.69;100.00;101882.82;1725574;82;21651;-56
2022/10/18 04:31:06;;;;;;;19.32;11.35;;;;;;;1.88;100.00;101880.05;1725588;83;21506;-56
2022/10/18 04:33:34;;;;;;;18.48;11.45;;;;;;;2.11;100.00;101875.70;1725360;83;20950;-63
2022/10/18 04:36:02;;;;;;;21.87;13.83;;;;;;;2.31;100.00;101869.84;1725426;83;21168;-55
2022/10/18 04:38:29;;;;;;;18.45;12.88;;;;;;;2.41;100.00;101871.80;1725333;83;21095;-57
2022/10/18 04:40:56;;;;;;;19.67;13.25;;;;;;;2.51;100.00;101874.67;1725392;83;20946;-58
2022/10/18 04:43:25;;;;;;;19.10;13.20;;;;;;;2.57;100.00;101870.89;1725456;83;21520;-58
2022/10/18 04:45:52;;;;;;;17.75;12.40;;;;;;;2.64;100.00;101869.61;1725003;83;21029;-65
2022/10/18 04:48:20;;;;;;;21.55;14.23;;;;;;;2.81;100.00;101867.32;1725526;83;21029;-56
2022/10/18 04:50:48;;;;;;;21.82;13.88;;;;;;;2.99;100.00;101866.63;1725633;83;21237;-56
2022/10/18 04:53:16;;;;;;;23.52;13.18;;;;;;;3.15;100.00;101863.03;1725534;83;21049;-56
2022/10/18 04:55:47;;;;;;;19.17;13.48;;;;;;;3.33;100.00;101858.92;1724818;83;21517;-57
2022/10/18 04:58:16;;;;;;;20.80;12.17;;;;;;;3.43;100.00;101854.85;1725775;83;21267;-55
2022/10/18 05:00:44;;;;;;;20.27;12.23;;;;;;;3.54;100.00;101848.55;1725772;83;21569;-55
2022/10/18 05:03:12;;;;;;;17.57;11.55;;;;;;;3.75;100.00;101851.52;1725522;83;21232;-57
2022/10/18 05:05:39;;;;;;;20.00;11.30;;;;;;;4.01;100.00;101854.94;1724818;83;20904;-58
2022/10/18 05:08:07;;;;;;;16.77;10.95;;;;;;;4.35;100.00;101850.12;1725450;83;21311;-55
2022/10/18 05:10:36;;;;;;;14.47;10.43;;;;;;;4.68;100.00;101855.22;1725308;83;20946;-55
2022/10/18 05:13:04;;;;;;;18.62;12.43;;;;;;;5.05;100.00;101854.32;1725396;83;21105;-56
2022/10/18 05:15:31;;;;;;;43.20;30.88;;;;;;;5.41;100.00;101854.39;1725758;83;21243;-55
2022/10/18 05:18:00;;;;;;;54.15;39.83;;;;;;;5.67;100.00;101870.63;1725031;83;21065;-57
2022/10/18 05:20:27;;;;;;;59.38;43.17;;;;;;;5.82;100.00;101865.16;1725463;83;21085;-55
2022/10/18 05:22:57;;;;;;;62.27;45.85;;;;;;;6.08;100.00;101861.97;1725708;83;21572;-56
2022/10/18 05:25:24;;;;;;;66.35;47.10;;;;;;;6.40;100.00;101861.78;1725727;83;20986;-62
2022/10/18 05:27:51;;;;;;;52.67;35.67;;;;;;;6.77;100.00;101866.27;1725083;83;21841;-55
2022/10/18 05:30:19;;;;;;;42.93;31.10;;;;;;;7.19;100.00;101870.34;1725525;83;21003;-56
2022/10/18 05:32:46;;;;;;;36.20;27.10;;;;;;;7.72;100.00;101872.52;1725579;83;21327;-56
2022/10/18 05:35:14;;;;;;;27.80;21.67;;;;;;;8.44;100.00;101864.47;1725240;83;21280;-62
2022/10/18 05:37:41;;;;;;;28.60;19.23;;;;;;;9.33;100.00;101859.41;1725622;83;22346;-55
2022/10/18 05:40:10;;;;;;;29.93;21.33;;;;;;;10.34;100.00;101857.63;1725447;83;21646;-55
2022/10/18 05:42:37;;;;;;;22.53;16.57;;;;;;;11.35;100.00;101861.07;1725767;83;21758;-56
2022/10/18 05:45:05;;;;;;;18.33;14.57;;;;;;;12.38;100.00;101852.22;1725313;83;20939;-60
2022/10/18 05:47:33;;;;;;;16.03;12.17;;;;;;;13.29;100.00;101854.20;1725325;83;22138;-56
2022/10/18 05:50:01;;;;;;;15.17;12.23;;;;;;;14.14;100.00;101853.36;1725636;83;21006;-56
2022/10/18 05:52:29;;;;;;;16.83;13.27;;;;;;;14.58;100.00;101858.16;1725811;83;21096;-57
2022/10/18 05:54:56;;;;;;;19.00;14.37;;;;;;;14.65;100.00;101864.88;1725344;83;20986;-63
2022/10/18 05:57:23;;;;;;;16.17;13.63;;;;;;;14.55;100.00;101866.41;1725362;83;21060;-56
2022/10/18 05:59:51;;;;;;;16.43;14.10;;;;;;;14.12;100.00;101864.50;1725595;83;21090;-56
2022/10/18 06:02:18;;;;;;;21.07;14.17;;;;;;;13.77;100.00;101860.45;1725947;83;21417;-56
2022/10/18 06:04:46;;;;;;;18.50;15.60;;;;;;;13.24;100.00;101856.48;1725797;83;21501;-56
2022/10/18 06:07:13;;;;;;;19.13;15.00;;;;;;;12.73;100.00;101861.72;1724519;82;20974;-55
2022/10/18 06:09:40;;;;;;;17.13;14.77;;;;;;;12.43;100.00;101861.75;1725536;83;21002;-55
2022/10/18 06:12:07;;;;;;;20.47;15.47;;;;;;;12.26;100.00;101858.20;1725510;83;21568;-56
2022/10/18 06:14:36;;;;;;;21.33;15.93;;;;;;;12.12;100.00;101853.54;1725469;83;20966;-55
2022/10/18 06:17:04;;;;;;;25.47;19.03;;;;;;;11.95;100.00;101850.50;1725250;83;21047;-58
2022/10/18 06:19:31;;;;;;;25.43;20.20;;;;;;;11.81;100.00;101857.05;1725482;83;21426;-57
2022/10/18 06:21:59;;;;;;;25.40;18.97;;;;;;;11.73;100.00;101856.51;1725574;81;20975;-55
2022/10/18 06:24:26;;;;;;;20.97;17.40;;;;;;;12.08;100.00;101854.83;1725513;83;20907;-57
2022/10/18 06:26:55;;;;;;;24.20;18.70;;;;;;;12.48;100.00;101847.70;1725426;83;21015;-57
2022/10/18 06:29:22;;;;;;;24.70;19.07;;;;;;;12.82;100.00;101849.48;1696480;83;22470;-60
2022/10/18 06:31:50;;;;;;;24.97;19.27;;;;;;;13.32;100.00;101844.70;1725641;83;21097;-57
2022/10/18 06:34:17;;;;;;;23.20;17.80;;;;;;;14.07;100.00;101837.97;1725493;83;21035;-56
2022/10/18 06:36:44;;;;;;;19.67;16.73;;;;;;;14.97;100.00;101838.97;1725476;83;21074;-55
2022/10/18 06:40:47;;;;;;;17.60;13.63;;;;;;;16.19;100.00;101826.13;1795940;79;24862;-56
2022/10/18 06:45:18;;;;;;;15.40;12.67;;;;;;;17.05;100.00;101822.91;1796072;79;26695;-57
2022/10/18 06:47:47;;;;;;;19.50;14.53;;;;;;;17.90;96.84;101808.85;1756057;81;20991;-57
2022/10/18 06:50:14;;;;;;;19.57;16.67;;;;;;;18.51;84.96;101808.95;1756306;80;21202;-57
2022/10/18 06:52:42;;;;;;;23.20;20.50;;;;;;;18.98;76.38;101804.66;1755686;81;21529;-59
2022/10/18 07:17:26;;;;;;;19.07;13.70;;;;;;;20.97;54.54;101783.02;1796226;79;22067;-56
2022/10/18 07:19:53;;;;;;;14.63;11.97;;;;;;;21.14;55.60;101777.50;1756306;81;21553;-56
2022/10/18 07:22:21;;;;;;;14.47;11.40;;;;;;;21.36;53.22;101777.13;1756462;81;22155;-56
2022/10/18 07:24:48;;;;;;;14.18;10.90;;;;;;;21.50;52.98;101777.31;1755733;81;20884;-59
2022/10/18 07:27:16;;;;;;;13.30;9.93;;;;;;;21.71;51.40;101781.41;1756048;81;22018;-56
2022/10/18 07:29:43;;;;;;;10.82;9.30;;;;;;;21.78;50.74;101770.22;1756018;81;21592;-56
2022/10/18 07:32:11;;;;;;;11.70;9.43;;;;;;;21.89;50.32;101765.19;1756105;81;20920;-56
2022/10/18 07:34:38;;;;;;;11.35;10.00;;;;;;;22.01;50.19;101761.59;1756168;81;21106;-65
2022/10/18 07:37:05;;;;;;;14.53;11.38;;;;;;;22.15;49.70;101762.77;1755486;81;21304;-57
2022/10/18 07:39:32;;;;;;;12.10;10.18;;;;;;;22.27;48.95;101755.14;1756061;81;21563;-56
2022/10/18 07:42:00;;;;;;;13.20;9.25;;;;;;;22.42;48.41;101755.27;1756045;81;20995;-56
2022/10/18 07:44:28;;;;;;;12.63;9.73;;;;;;;22.55;47.61;101745.27;1756139;81;20969;-57
2022/10/18 07:46:56;;;;;;;13.32;10.00;;;;;;;22.62;46.92;101739.06;1756074;80;21250;-59
2022/10/18 07:49:23;;;;;;;12.85;9.38;;;;;;;22.61;46.59;101732.11;1755725;81;20945;-57
2022/10/18 07:51:51;;;;;;;12.03;10.03;;;;;;;22.54;46.42;101733.03;1755918;81;21241;-56
2022/10/18 07:54:18;;;;;;;11.22;8.88;;;;;;;22.53;46.46;101735.37;1756165;81;21474;-56
2022/10/18 07:56:46;;;;;;;12.65;9.35;;;;;;;22.49;46.39;101725.43;1756172;81;20932;-56
2022/10/18 07:59:13;;;;;;;11.48;9.25;;;;;;;22.51;46.32;101724.70;1755949;81;21238;-58
2022/10/18 08:01:40;;;;;;;11.38;10.18;;;;;;;22.61;46.80;101726.27;1756128;81;21407;-56
2022/10/18 08:04:07;;;;;;;12.25;9.83;;;;;;;22.79;46.67;101724.87;1756222;80;20948;-57
2022/10/18 08:06:35;;;;;;;13.65;10.53;;;;;;;22.99;46.18;101711.80;1755920;81;20932;-57
2022/10/18 08:09:04;;;;;;;12.20;9.53;;;;;;;23.12;45.16;101712.13;1756100;81;21477;-56
2022/10/18 08:11:31;;;;;;;14.95;11.35;;;;;;;23.21;45.53;101711.52;1755706;81;21135;-60
2022/10/18 08:14:00;;;;;;;11.55;9.90;;;;;;;23.35;44.61;101701.98;1755958;81;21030;-56
2022/10/18 08:16:27;;;;;;;11.73;9.95;;;;;;;23.42;44.35;101698.16;1756076;81;20983;-56
2022/10/18 08:18:56;;;;;;;13.00;9.40;;;;;;;23.53;44.26;101697.34;1756344;81;20996;-57
2022/10/18 08:21:23;;;;;;;15.68;10.10;;;;;;;23.62;43.43;101684.99;1756218;81;21474;-56
2022/10/18 08:23:52;;;;;;;14.35;9.60;;;;;;;23.60;43.31;101689.73;1755709;81;21668;-56
2022/10/18 08:26:21;;;;;;;11.15;9.05;;;;;;;23.54;43.22;101685.64;1756453;81;21860;-56
2022/10/18 08:28:49;;;;;;;12.28;9.30;;;;;;;23.42;41.96;101666.75;1755842;81;21498;-56
2022/10/18 08:31:17;;;;;;;18.55;10.38;;;;;;;23.18;42.02;101681.91;1755677;81;20916;-56
2022/10/18 08:33:46;;;;;;;15.60;10.15;;;;;;;23.06;42.29;101677.93;1755594;81;21043;-58
2022/10/18 08:36:14;;;;;;;9.75;7.50;;;;;;;23.06;41.42;101680.06;1755886;81;21308;-57
2022/10/18 08:38:44;;;;;;;11.53;6.70;;;;;;;23.02;41.06;101674.92;1755835;81;21020;-56
2022/10/18 08:41:37;;;;;;;8.38;6.53;;;;;;;23.08;41.17;101669.21;1755876;81;20857;-56
2022/10/18 08:44:32;;;;;;;12.82;7.75;;;;;;;23.20;41.11;101667.35;1755766;81;21784;-55
2022/10/18 08:47:05;;;;;;;11.77;8.47;;;;;;;23.45;40.85;101659.61;1755265;81;20964;-61
2022/10/18 08:49:47;;;;;;;17.07;10.43;;;;;;;23.64;40.80;101657.10;1755688;81;21230;-55
2022/10/18 08:52:26;;;;;;;9.45;7.35;;;;;;;23.81;40.54;101654.52;1755819;80;21055;-55
2022/10/18 08:55:01;;;;;;;10.23;6.75;;;;;;;23.89;39.20;101657.33;1755473;81;21568;-57
2022/10/18 08:57:29;;;;;;;9.97;6.60;;;;;;;23.82;38.84;101657.46;1755642;81;20988;-55
2022/10/18 08:59:56;;;;;;;13.80;7.62;;;;;;;23.77;38.76;101652.05;1738969;81;21014;-55
2022/10/18 09:02:50;;;;;;;15.13;9.93;;;;;;;23.83;39.23;101644.95;1755849;81;21146;-56
2022/10/18 09:05:51;;;;;;;14.07;9.13;;;;;;;23.86;38.25;101647.95;1719784;83;20919;-56
2022/10/18 09:08:45;;;;;;;9.97;7.13;;;;;;;23.84;38.07;101647.39;1673375;85;21012;-57
2022/10/18 09:11:40;;;;;;;12.97;7.40;;;;;;;23.79;37.65;101642.78;1654100;86;22465;-56
2022/10/18 09:14:27;;;;;;;9.43;5.53;;;;;;;23.79;37.86;101643.31;1709091;83;21014;-55
2022/10/18 09:17:03;;;;;;;9.63;6.47;;;;;;;23.67;36.86;101639.33;1711136;82;21203;-57
2022/10/18 09:19:54;;;;;;;8.00;5.67;;;;;;;23.43;37.78;101635.91;1742797;82;22110;-55
2022/10/18 09:22:30;;;;;;;8.15;5.58;;;;;;;23.48;37.21;101632.00;1742735;81;21440;-62
2022/10/18 09:25:22;;;;;;;8.17;4.30;;;;;;;23.52;36.44;101631.84;1730014;82;21431;-56
2022/10/18 09:27:56;;;;;;;9.23;5.67;;;;;;;23.45;36.60;101622.35;1742361;81;20980;-56
2022/10/18 09:30:34;;;;;;;8.60;5.03;;;;;;;23.53;37.02;101628.14;1741981;82;21131;-55
2022/10/18 09:33:16;;;;;;;6.30;4.27;;;;;;;23.55;35.71;101612.72;1742363;81;21082;-55
2022/10/18 09:35:56;;;;;;;7.43;4.90;;;;;;;23.38;35.55;101617.19;1706160;84;20940;-62
2022/10/18 09:38:34;;;;;;;8.40;4.67;;;;;;;23.32;35.96;101612.79;1706943;84;21078;-55
2022/10/18 09:41:21;;;;;;;8.30;5.10;;;;;;;23.45;36.56;101613.88;1732106;82;21035;-56
2022/10/18 09:43:56;;;;;;;6.90;4.23;;;;;;;23.65;36.09;101604.66;1742139;81;21384;-55
2022/10/18 09:46:28;;;;;;;7.87;4.40;;;;;;;23.63;34.79;101594.77;1742239;81;21431;-55
2022/10/18 09:49:23;;;;;;;7.17;4.20;;;;;;;23.53;34.71;101586.88;1706654;84;20975;-63
2022/10/18 09:51:51;;;;;;;6.07;3.90;;;;;;;23.47;34.90;101586.48;1706531;84;20924;-56
2022/10/18 09:54:35;;;;;;;6.60;3.63;;;;;;;23.50;34.00;101569.24;1706691;84;21057;-56
2022/10/18 09:57:29;;;;;;;5.03;3.37;;;;;;;23.38;34.27;101568.48;1706577;84;21228;-55
2022/10/18 09:59:55;;;;;;;7.37;3.40;;;;;;;23.31;34.41;101561.95;1742212;81;20921;-57
2022/10/18 10:02:24;;;;;;;5.57;3.87;;;;;;;23.18;34.63;101560.88;1741866;82;20959;-63
2022/10/18 10:04:53;;;;;;;5.97;3.97;;;;;;;23.12;34.28;101553.86;1742517;82;21011;-56
2022/10/18 10:07:27;;;;;;;6.47;3.87;;;;;;;23.09;34.12;101560.97;1742375;82;20968;-56
2022/10/18 10:10:07;;;;;;;6.70;3.80;;;;;;;23.12;33.98;101544.02;1742558;82;21851;-55
2022/10/18 10:12:38;;;;;;;11.08;4.83;;;;;;;23.17;32.98;101541.98;1742415;82;21443;-56
2022/10/18 10:15:25;;;;;;;6.47;4.10;;;;;;;23.10;32.43;101538.64;1742432;81;20889;-55
2022/10/18 10:18:16;;;;;;;6.27;3.83;;;;;;;22.91;32.30;101531.30;1752838;81;21030;-56
2022/10/18 10:20:46;;;;;;;5.37;4.08;;;;;;;22.68;32.84;101537.45;1756001;81;21498;-55
2022/10/18 10:23:27;;;;;;;6.10;4.10;;;;;;;22.61;32.34;101528.80;1755927;81;21887;-56
2022/10/18 10:25:59;;;;;;;6.20;3.27;;;;;;;22.57;32.77;101531.91;1755725;81;20995;-56
2022/10/18 10:28:29;;;;;;;6.43;3.80;;;;;;;22.71;32.55;101525.04;1755895;81;20981;-56
2022/10/18 10:31:16;;;;;;;7.70;3.90;;;;;;;22.82;31.77;101524.22;1755601;81;20939;-56
2022/10/18 10:33:46;;;;;;;8.13;5.90;;;;;;;22.80;31.45;101521.77;1755880;81;21090;-55
2022/10/18 10:36:19;;;;;;;19.37;13.37;;;;;;;22.71;31.66;101517.87;1755631;81;21940;-55
2022/10/18 10:39:06;;;;;;;6.73;4.80;;;;;;;22.67;31.93;101511.92;1755947;81;20940;-55
2022/10/18 10:41:34;;;;;;;26.20;16.87;;;;;;;22.57;31.84;101514.63;1698045;83;21470;-55
2022/10/18 10:44:02;;;;;;;12.27;7.67;;;;;;;22.43;31.89;101507.96;1701447;84;21510;-55
2022/10/18 10:46:35;;;;;;;10.43;5.87;;;;;;;22.40;31.95;101503.10;1701635;84;21076;-54
2022/10/18 10:49:02;;;;;;;7.63;4.57;;;;;;;22.41;31.93;101489.30;1701408;84;21247;-55
2022/10/18 10:51:33;;;;;;;7.10;4.17;;;;;;;22.41;31.38;101486.64;1701497;84;20981;-55
2022/10/18 10:54:06;;;;;;;8.80;4.93;;;;;;;22.41;31.27;101491.42;1701599;84;21008;-55
2022/10/18 10:56:35;;;;;;;14.77;9.53;;;;;;;22.41;31.08;101487.44;1701372;84;20969;-56
2022/10/18 10:59:14;;;;;;;15.85;9.13;;;;;;;22.31;31.49;101480.06;1701323;84;20897;-55
2022/10/18 11:01:42;;;;;;;10.67;5.27;;;;;;;22.28;32.48;101481.85;1701723;84;21892;-55
2022/10/18 11:04:28;;;;;;;7.57;4.23;;;;;;;22.37;31.74;101478.32;1701669;84;21575;-57
2022/10/18 11:07:03;;;;;;;7.53;5.33;;;;;;;22.36;31.93;101470.06;1701441;84;21456;-56
2022/10/18 11:09:58;;;;;;;6.17;3.50;;;;;;;22.30;31.88;101470.98;1701636;84;21008;-55
2022/10/18 11:12:32;;;;;;;8.10;5.37;;;;;;;22.23;31.40;101460.98;1701482;84;21135;-55
2022/10/18 11:15:31;;;;;;;8.30;5.70;;;;;;;22.17;31.82;101459.28;1701575;84;21321;-54
2022/10/18 11:18:35;;;;;;;6.75;3.87;;;;;;;22.16;32.14;101453.66;1695396;84;21309;-56
2022/10/18 11:21:16;;;;;;;8.03;5.20;;;;;;;22.11;32.14;101455.65;1706132;84;20969;-64
2022/10/18 11:23:44;;;;;;;8.93;6.70;;;;;;;22.14;31.77;101449.11;1706573;84;21020;-57
2022/10/18 11:26:16;;;;;;;10.93;7.13;;;;;;;22.13;32.29;101444.29;1706446;84;20905;-56
2022/10/18 11:29:17;;;;;;;7.07;4.60;;;;;;;22.19;32.67;101439.92;1706499;84;21170;-56
2022/10/18 11:32:11;;;;;;;7.85;5.20;;;;;;;22.25;31.69;101436.34;1706360;83;21625;-58
2022/10/18 11:34:46;;;;;;;5.30;3.33;;;;;;;22.08;31.00;101433.01;1706293;84;21020;-56
2022/10/18 11:37:37;;;;;;;6.93;3.77;;;;;;;21.91;30.65;101425.45;1706408;84;20965;-56
2022/10/18 11:40:42;;;;;;;5.75;4.20;;;;;;;21.84;31.21;101434.84;1676414;84;21091;-58
2022/10/18 11:43:49;;;;;;;11.00;5.53;;;;;;;21.93;31.66;101422.56;1705872;84;21184;-56
2022/10/18 11:46:48;;;;;;;8.83;5.57;;;;;;;22.02;31.34;101425.98;1706440;83;20987;-57
2022/10/18 11:49:43;;;;;;;9.53;4.70;;;;;;;22.00;30.69;101420.08;1706208;84;22209;-56
2022/10/18 11:52:41;;;;;;;7.90;4.03;;;;;;;21.82;30.96;101420.17;1705841;84;21016;-57
2022/10/18 11:55:20;;;;;;;5.47;4.13;;;;;;;21.70;31.07;101416.70;1706135;84;21072;-56
2022/10/18 11:58:25;;;;;;;7.37;5.00;;;;;;;21.59;30.21;101416.48;1705846;84;21160;-57
2022/10/18 12:00:58;;;;;;;9.80;5.87;;;;;;;21.45;30.52;101401.79;1706073;84;20988;-60
2022/10/18 12:03:39;;;;;;;7.43;4.60;;;;;;;21.38;31.53;101399.23;1706437;84;21087;-56
2022/10/18 12:06:10;;;;;;;;;;;;;;;21.35;31.30;101399.67;1708449;83;21014;-56